Batesburg-Leesville, South Carolina
Current Conditions -  °F | °C
As of 9:56 AM on Thursday 18 Dec 2014 (Local Time) from KCAE Reporting Station
Scattered Clouds Scattered Clouds  
Wind Chill: 51°   Ceiling: Unl
Heat Index: 51°   Visibility: 10mi
Dew Point: 33°   Wind: 8mph
Humidity: 50%   Direction: 60°ENE
Pressure: 30.19"   Gusts: NA
Location:  33.8822°N, 81.433°W
Report Text: KCAE 181456Z 06007KT 10SM FEW150 SCT220 11/01 A3019 RMK AO2 SLP223 T01060006 51020
Loading
Personal Weather Stations






























Interactive Weather Map New forecast layout! Learn more

10-Day Weather Forecast

Advertisements
Track Severe Weather on mobile